sensor_id;sensor_type;location;lat;lon;timestamp;P1;durP1;ratioP1;P2;durP2;ratioP2
56997;SDS011;42890;44.244;22.530;2023-04-01T00:00:52;20.60;;;15.48;;
56997;SDS011;42890;44.244;22.530;2023-04-01T00:03:19;21.02;;;16.27;;
56997;SDS011;42890;44.244;22.530;2023-04-01T00:05:45;15.43;;;13.88;;
56997;SDS011;42890;44.244;22.530;2023-04-01T00:08:11;18.85;;;16.33;;
56997;SDS011;42890;44.244;22.530;2023-04-01T00:10:38;41.15;;;28.45;;
56997;SDS011;42890;44.244;22.530;2023-04-01T00:13:04;45.47;;;34.13;;
56997;SDS011;42890;44.244;22.530;2023-04-01T00:15:30;39.25;;;29.02;;
56997;SDS011;42890;44.244;22.530;2023-04-01T00:17:56;40.08;;;28.35;;
56997;SDS011;42890;44.244;22.530;2023-04-01T00:20:23;38.45;;;28.38;;
56997;SDS011;42890;44.244;22.530;2023-04-01T00:22:50;232.63;;;115.68;;
56997;SDS011;42890;44.244;22.530;2023-04-01T00:25:16;35.88;;;27.92;;
56997;SDS011;42890;44.244;22.530;2023-04-01T00:27:42;158.70;;;86.13;;
56997;SDS011;42890;44.244;22.530;2023-04-01T00:30:09;46.33;;;37.08;;
56997;SDS011;42890;44.244;22.530;2023-04-01T00:32:35;35.33;;;28.67;;
56997;SDS011;42890;44.244;22.530;2023-04-01T00:35:01;65.70;;;43.75;;
56997;SDS011;42890;44.244;22.530;2023-04-01T00:37:28;27.10;;;19.98;;
56997;SDS011;42890;44.244;22.530;2023-04-01T00:39:54;37.78;;;29.13;;
56997;SDS011;42890;44.244;22.530;2023-04-01T00:42:20;29.17;;;21.25;;
56997;SDS011;42890;44.244;22.530;2023-04-01T00:44:53;19.58;;;14.80;;
56997;SDS011;42890;44.244;22.530;2023-04-01T00:47:20;14.20;;;10.77;;
56997;SDS011;42890;44.244;22.530;2023-04-01T00:49:48;14.23;;;12.32;;
56997;SDS011;42890;44.244;22.530;2023-04-01T00:52:15;16.80;;;12.68;;
56997;SDS011;42890;44.244;22.530;2023-04-01T00:54:44;17.77;;;12.73;;
56997;SDS011;42890;44.244;22.530;2023-04-01T00:57:15;15.10;;;12.07;;
56997;SDS011;42890;44.244;22.530;2023-04-01T00:59:44;12.95;;;11.68;;
56997;SDS011;42890;44.244;22.530;2023-04-01T01:02:11;19.63;;;13.25;;
56997;SDS011;42890;44.244;22.530;2023-04-01T01:04:37;14.63;;;11.35;;
56997;SDS011;42890;44.244;22.530;2023-04-01T01:09:49;17.20;;;13.63;;
56997;SDS011;42890;44.244;22.530;2023-04-01T01:12:19;16.70;;;12.43;;
56997;SDS011;42890;44.244;22.530;2023-04-01T01:27:33;22.25;;;16.00;;
56997;SDS011;42890;44.244;22.530;2023-04-01T01:30:10;59.20;;;32.80;;
56997;SDS011;42890;44.244;22.530;2023-04-01T01:35:16;45.63;;;29.55;;
56997;SDS011;42890;44.244;22.530;2023-04-01T01:37:45;62.35;;;40.38;;
56997;SDS011;42890;44.244;22.530;2023-04-01T01:40:12;49.70;;;36.70;;
56997;SDS011;42890;44.244;22.530;2023-04-01T01:42:49;49.22;;;32.47;;
56997;SDS011;42890;44.244;22.530;2023-04-01T01:45:16;42.67;;;28.83;;
56997;SDS011;42890;44.244;22.530;2023-04-01T01:47:44;29.17;;;21.00;;
56997;SDS011;42890;44.244;22.530;2023-04-01T01:50:11;26.30;;;18.08;;
56997;SDS011;42890;44.244;22.530;2023-04-01T01:52:37;32.15;;;23.13;;
56997;SDS011;42890;44.244;22.530;2023-04-01T01:55:22;49.67;;;30.60;;
56997;SDS011;42890;44.244;22.530;2023-04-01T01:57:49;52.30;;;36.00;;
56997;SDS011;42890;44.244;22.530;2023-04-01T02:00:15;73.45;;;49.83;;
56997;SDS011;42890;44.244;22.530;2023-04-01T02:02:42;109.10;;;65.85;;
56997;SDS011;42890;44.244;22.530;2023-04-01T02:05:10;80.18;;;53.63;;
56997;SDS011;42890;44.244;22.530;2023-04-01T02:07:37;61.65;;;42.13;;
56997;SDS011;42890;44.244;22.530;2023-04-01T02:10:05;59.50;;;39.38;;
56997;SDS011;42890;44.244;22.530;2023-04-01T02:12:31;19.40;;;17.35;;
56997;SDS011;42890;44.244;22.530;2023-04-01T02:17:25;15.65;;;13.43;;
56997;SDS011;42890;44.244;22.530;2023-04-01T02:19:59;17.23;;;14.50;;
56997;SDS011;42890;44.244;22.530;2023-04-01T02:22:31;17.20;;;15.45;;
56997;SDS011;42890;44.244;22.530;2023-04-01T02:25:06;21.50;;;13.57;;
56997;SDS011;42890;44.244;22.530;2023-04-01T02:27:32;18.70;;;14.07;;
56997;SDS011;42890;44.244;22.530;2023-04-01T02:29:58;18.23;;;16.38;;
56997;SDS011;42890;44.244;22.530;2023-04-01T02:32:25;18.20;;;14.40;;
56997;SDS011;42890;44.244;22.530;2023-04-01T02:34:52;17.95;;;12.95;;
56997;SDS011;42890;44.244;22.530;2023-04-01T02:37:18;16.20;;;14.02;;
56997;SDS011;42890;44.244;22.530;2023-04-01T02:39:45;21.35;;;13.13;;
56997;SDS011;42890;44.244;22.530;2023-04-01T02:42:11;17.58;;;14.10;;
56997;SDS011;42890;44.244;22.530;2023-04-01T02:44:37;16.80;;;14.20;;
56997;SDS011;42890;44.244;22.530;2023-04-01T02:47:03;19.35;;;15.23;;
56997;SDS011;42890;44.244;22.530;2023-04-01T02:49:29;19.05;;;17.02;;
56997;SDS011;42890;44.244;22.530;2023-04-01T02:51:55;21.15;;;15.38;;
56997;SDS011;42890;44.244;22.530;2023-04-01T02:54:21;22.48;;;17.63;;
56997;SDS011;42890;44.244;22.530;2023-04-01T02:56:48;17.70;;;15.30;;
56997;SDS011;42890;44.244;22.530;2023-04-01T02:59:14;23.88;;;18.98;;
56997;SDS011;42890;44.244;22.530;2023-04-01T03:01:40;32.95;;;28.00;;
56997;SDS011;42890;44.244;22.530;2023-04-01T03:04:06;49.22;;;36.65;;
56997;SDS011;42890;44.244;22.530;2023-04-01T03:06:32;38.72;;;30.95;;
56997;SDS011;42890;44.244;22.530;2023-04-01T03:08:59;53.15;;;40.22;;
56997;SDS011;42890;44.244;22.530;2023-04-01T03:11:25;17.73;;;15.45;;
56997;SDS011;42890;44.244;22.530;2023-04-01T03:13:51;19.92;;;16.65;;
56997;SDS011;42890;44.244;22.530;2023-04-01T03:16:17;22.70;;;19.90;;
56997;SDS011;42890;44.244;22.530;2023-04-01T03:18:43;26.90;;;22.85;;
56997;SDS011;42890;44.244;22.530;2023-04-01T03:21:16;23.77;;;20.65;;
56997;SDS011;42890;44.244;22.530;2023-04-01T03:23:42;24.30;;;20.92;;
56997;SDS011;42890;44.244;22.530;2023-04-01T03:26:08;136.90;;;79.55;;
56997;SDS011;42890;44.244;22.530;2023-04-01T03:28:35;33.90;;;27.80;;
56997;SDS011;42890;44.244;22.530;2023-04-01T03:31:01;19.55;;;17.55;;
56997;SDS011;42890;44.244;22.530;2023-04-01T03:33:27;21.60;;;19.27;;
56997;SDS011;42890;44.244;22.530;2023-04-01T03:35:53;24.20;;;21.00;;
56997;SDS011;42890;44.244;22.530;2023-04-01T03:38:20;17.67;;;15.90;;
56997;SDS011;42890;44.244;22.530;2023-04-01T03:40:46;20.08;;;17.50;;
56997;SDS011;42890;44.244;22.530;2023-04-01T03:43:12;24.17;;;21.65;;
56997;SDS011;42890;44.244;22.530;2023-04-01T03:45:48;28.45;;;21.73;;
56997;SDS011;42890;44.244;22.530;2023-04-01T03:48:14;27.35;;;20.20;;
56997;SDS011;42890;44.244;22.530;2023-04-01T03:50:41;22.60;;;18.35;;
56997;SDS011;42890;44.244;22.530;2023-04-01T03:53:07;18.75;;;16.85;;
56997;SDS011;42890;44.244;22.530;2023-04-01T03:55:33;19.75;;;16.25;;
56997;SDS011;42890;44.244;22.530;2023-04-01T03:57:59;21.75;;;16.63;;
56997;SDS011;42890;44.244;22.530;2023-04-01T04:00:27;17.05;;;14.18;;
56997;SDS011;42890;44.244;22.530;2023-04-01T04:02:53;15.85;;;14.23;;
56997;SDS011;42890;44.244;22.530;2023-04-01T04:05:21;17.38;;;15.68;;
56997;SDS011;42890;44.244;22.530;2023-04-01T04:07:47;28.17;;;19.15;;
56997;SDS011;42890;44.244;22.530;2023-04-01T04:10:13;28.92;;;25.40;;
56997;SDS011;42890;44.244;22.530;2023-04-01T04:12:39;40.92;;;34.72;;
56997;SDS011;42890;44.244;22.530;2023-04-01T04:15:06;50.70;;;39.30;;
56997;SDS011;42890;44.244;22.530;2023-04-01T04:17:32;40.03;;;33.58;;
56997;SDS011;42890;44.244;22.530;2023-04-01T04:19:58;36.88;;;28.85;;
56997;SDS011;42890;44.244;22.530;2023-04-01T04:22:24;31.42;;;27.30;;
56997;SDS011;42890;44.244;22.530;2023-04-01T04:24:50;34.03;;;28.63;;
56997;SDS011;42890;44.244;22.530;2023-04-01T04:27:17;30.30;;;26.63;;
56997;SDS011;42890;44.244;22.530;2023-04-01T04:29:43;32.88;;;29.17;;
56997;SDS011;42890;44.244;22.530;2023-04-01T04:32:09;35.22;;;29.77;;
56997;SDS011;42890;44.244;22.530;2023-04-01T04:34:35;29.58;;;25.35;;
56997;SDS011;42890;44.244;22.530;2023-04-01T04:37:01;26.50;;;23.80;;
56997;SDS011;42890;44.244;22.530;2023-04-01T04:39:27;25.20;;;22.67;;
56997;SDS011;42890;44.244;22.530;2023-04-01T04:41:53;30.63;;;27.33;;
56997;SDS011;42890;44.244;22.530;2023-04-01T04:44:20;28.67;;;25.38;;
56997;SDS011;42890;44.244;22.530;2023-04-01T04:46:46;32.10;;;25.27;;
56997;SDS011;42890;44.244;22.530;2023-04-01T04:49:12;74.15;;;42.33;;
56997;SDS011;42890;44.244;22.530;2023-04-01T04:51:38;196.27;;;71.18;;
56997;SDS011;42890;44.244;22.530;2023-04-01T04:54:05;41.63;;;27.25;;
56997;SDS011;42890;44.244;22.530;2023-04-01T04:56:31;25.77;;;21.00;;
56997;SDS011;42890;44.244;22.530;2023-04-01T04:58:57;18.10;;;16.48;;
56997;SDS011;42890;44.244;22.530;2023-04-01T05:01:24;18.52;;;16.48;;
56997;SDS011;42890;44.244;22.530;2023-04-01T05:03:50;17.95;;;16.10;;
56997;SDS011;42890;44.244;22.530;2023-04-01T05:06:17;18.38;;;16.13;;
56997;SDS011;42890;44.244;22.530;2023-04-01T05:08:44;18.27;;;16.35;;
56997;SDS011;42890;44.244;22.530;2023-04-01T05:11:13;18.23;;;16.38;;
56997;SDS011;42890;44.244;22.530;2023-04-01T05:13:40;20.88;;;18.70;;
56997;SDS011;42890;44.244;22.530;2023-04-01T05:16:17;49.83;;;36.05;;
56997;SDS011;42890;44.244;22.530;2023-04-01T05:18:43;61.08;;;46.75;;
56997;SDS011;42890;44.244;22.530;2023-04-01T05:21:10;83.82;;;55.00;;
56997;SDS011;42890;44.244;22.530;2023-04-01T05:23:36;46.65;;;40.08;;
56997;SDS011;42890;44.244;22.530;2023-04-01T05:26:06;24.63;;;22.13;;
56997;SDS011;42890;44.244;22.530;2023-04-01T05:28:49;23.98;;;19.42;;
56997;SDS011;42890;44.244;22.530;2023-04-01T05:31:15;18.58;;;16.65;;
56997;SDS011;42890;44.244;22.530;2023-04-01T05:33:41;17.25;;;15.43;;
56997;SDS011;42890;44.244;22.530;2023-04-01T05:38:33;20.77;;;17.27;;
56997;SDS011;42890;44.244;22.530;2023-04-01T05:41:00;20.10;;;15.75;;
56997;SDS011;42890;44.244;22.530;2023-04-01T05:43:26;18.05;;;16.05;;
56997;SDS011;42890;44.244;22.530;2023-04-01T05:45:52;20.42;;;15.65;;
56997;SDS011;42890;44.244;22.530;2023-04-01T05:48:18;15.27;;;13.77;;
56997;SDS011;42890;44.244;22.530;2023-04-01T05:50:44;19.75;;;13.70;;
56997;SDS011;42890;44.244;22.530;2023-04-01T05:53:10;29.88;;;15.27;;
56997;SDS011;42890;44.244;22.530;2023-04-01T05:55:36;25.33;;;13.82;;
56997;SDS011;42890;44.244;22.530;2023-04-01T05:58:02;27.38;;;13.40;;
56997;SDS011;42890;44.244;22.530;2023-04-01T06:00:29;15.68;;;11.20;;
56997;SDS011;42890;44.244;22.530;2023-04-01T06:02:57;12.57;;;10.75;;
56997;SDS011;42890;44.244;22.530;2023-04-01T06:05:24;11.75;;;10.63;;
56997;SDS011;42890;44.244;22.530;2023-04-01T06:07:51;18.02;;;13.18;;
56997;SDS011;42890;44.244;22.530;2023-04-01T06:10:21;15.73;;;14.13;;
56997;SDS011;42890;44.244;22.530;2023-04-01T06:13:06;18.33;;;13.27;;
56997;SDS011;42890;44.244;22.530;2023-04-01T06:15:40;17.27;;;13.20;;
56997;SDS011;42890;44.244;22.530;2023-04-01T06:31:04;52.22;;;43.05;;
56997;SDS011;42890;44.244;22.530;2023-04-01T06:36:22;24.83;;;20.48;;
56997;SDS011;42890;44.244;22.530;2023-04-01T06:39:00;214.05;;;104.47;;
56997;SDS011;42890;44.244;22.530;2023-04-01T06:49:41;69.10;;;55.60;;
56997;SDS011;42890;44.244;22.530;2023-04-01T06:54:44;90.27;;;72.70;;
56997;SDS011;42890;44.244;22.530;2023-04-01T06:57:18;103.07;;;74.45;;
56997;SDS011;42890;44.244;22.530;2023-04-01T06:59:46;104.90;;;79.72;;
56997;SDS011;42890;44.244;22.530;2023-04-01T07:04:59;111.03;;;79.93;;
56997;SDS011;42890;44.244;22.530;2023-04-01T07:09:55;97.30;;;71.80;;
56997;SDS011;42890;44.244;22.530;2023-04-01T07:12:30;159.68;;;105.25;;
56997;SDS011;42890;44.244;22.530;2023-04-01T07:15:04;163.38;;;112.20;;
56997;SDS011;42890;44.244;22.530;2023-04-01T07:17:32;192.55;;;107.97;;
56997;SDS011;42890;44.244;22.530;2023-04-01T07:22:43;99.60;;;65.25;;
56997;SDS011;42890;44.244;22.530;2023-04-01T07:25:17;63.30;;;51.25;;
56997;SDS011;42890;44.244;22.530;2023-04-01T07:27:43;88.65;;;64.97;;
56997;SDS011;42890;44.244;22.530;2023-04-01T07:30:13;73.35;;;60.20;;
56997;SDS011;42890;44.244;22.530;2023-04-01T07:38:08;33.78;;;29.95;;
56997;SDS011;42890;44.244;22.530;2023-04-01T07:43:12;37.90;;;33.97;;
56997;SDS011;42890;44.244;22.530;2023-04-01T07:45:50;189.88;;;112.53;;
56997;SDS011;42890;44.244;22.530;2023-04-01T07:50:55;70.47;;;59.80;;
56997;SDS011;42890;44.244;22.530;2023-04-01T07:58:34;69.47;;;59.05;;
56997;SDS011;42890;44.244;22.530;2023-04-01T08:06:27;66.75;;;59.45;;
56997;SDS011;42890;44.244;22.530;2023-04-01T08:09:15;42.92;;;38.55;;
56997;SDS011;42890;44.244;22.530;2023-04-01T08:16:56;46.55;;;41.63;;
56997;SDS011;42890;44.244;22.530;2023-04-01T08:22:07;40.65;;;35.88;;
56997;SDS011;42890;44.244;22.530;2023-04-01T08:24:36;26.93;;;24.10;;
56997;SDS011;42890;44.244;22.530;2023-04-01T08:27:06;25.80;;;20.85;;
56997;SDS011;42890;44.244;22.530;2023-04-01T08:30:02;22.95;;;20.63;;
56997;SDS011;42890;44.244;22.530;2023-04-01T08:32:26;24.98;;;22.27;;
56997;SDS011;42890;44.244;22.530;2023-04-01T08:37:41;31.58;;;28.27;;
56997;SDS011;42890;44.244;22.530;2023-04-01T08:42:47;33.45;;;30.10;;
56997;SDS011;42890;44.244;22.530;2023-04-01T08:47:52;28.98;;;25.83;;
56997;SDS011;42890;44.244;22.530;2023-04-01T08:53:07;24.55;;;22.25;;
56997;SDS011;42890;44.244;22.530;2023-04-01T08:55:37;25.75;;;23.08;;
56997;SDS011;42890;44.244;22.530;2023-04-01T09:00:56;25.73;;;20.08;;
56997;SDS011;42890;44.244;22.530;2023-04-01T09:13:32;72.18;;;40.03;;
56997;SDS011;42890;44.244;22.530;2023-04-01T09:24:14;38.83;;;32.95;;
56997;SDS011;42890;44.244;22.530;2023-04-01T09:29:24;35.65;;;31.92;;
56997;SDS011;42890;44.244;22.530;2023-04-01T09:44:59;42.78;;;38.15;;
56997;SDS011;42890;44.244;22.530;2023-04-01T10:00:10;40.40;;;35.60;;
56997;SDS011;42890;44.244;22.530;2023-04-01T10:13:43;29.95;;;26.92;;
56997;SDS011;42890;44.244;22.530;2023-04-01T10:16:25;23.63;;;21.23;;
56997;SDS011;42890;44.244;22.530;2023-04-01T10:18:56;23.83;;;19.75;;
56997;SDS011;42890;44.244;22.530;2023-04-01T11:08:48;28.45;;;25.65;;
56997;SDS011;42890;44.244;22.530;2023-04-01T11:14:42;28.95;;;23.27;;
56997;SDS011;42890;44.244;22.530;2023-04-01T11:16:45;26.42;;;23.90;;
56997;SDS011;42890;44.244;22.530;2023-04-01T11:41:02;24.35;;;21.73;;
56997;SDS011;42890;44.244;22.530;2023-04-01T11:43:54;20.52;;;18.33;;
56997;SDS011;42890;44.244;22.530;2023-04-01T11:56:53;20.58;;;18.42;;
56997;SDS011;42890;44.244;22.530;2023-04-01T12:17:39;25.70;;;23.30;;
56997;SDS011;42890;44.244;22.530;2023-04-01T12:25:22;26.70;;;23.92;;
56997;SDS011;42890;44.244;22.530;2023-04-01T12:43:32;65.88;;;49.08;;
56997;SDS011;42890;44.244;22.530;2023-04-01T12:56:09;17.85;;;16.20;;
56997;SDS011;42890;44.244;22.530;2023-04-01T13:12:29;9.70;;;8.30;;
56997;SDS011;42890;44.244;22.530;2023-04-01T13:15:17;9.68;;;8.80;;
56997;SDS011;42890;44.244;22.530;2023-04-01T13:20:33;12.73;;;10.02;;
56997;SDS011;42890;44.244;22.530;2023-04-01T13:23:19;11.25;;;10.20;;
56997;SDS011;42890;44.244;22.530;2023-04-01T13:25:55;10.30;;;9.50;;
56997;SDS011;42890;44.244;22.530;2023-04-01T13:28:28;10.65;;;9.63;;
56997;SDS011;42890;44.244;22.530;2023-04-01T13:44:51;11.15;;;10.00;;
56997;SDS011;42890;44.244;22.530;2023-04-01T13:57:32;8.43;;;7.63;;
56997;SDS011;42890;44.244;22.530;2023-04-01T14:02:56;8.45;;;7.38;;
56997;SDS011;42890;44.244;22.530;2023-04-01T14:15:50;12.88;;;10.55;;
56997;SDS011;42890;44.244;22.530;2023-04-01T14:26:09;9.63;;;8.63;;
56997;SDS011;42890;44.244;22.530;2023-04-01T14:31:37;10.20;;;9.18;;
56997;SDS011;42890;44.244;22.530;2023-04-01T14:37:03;8.43;;;7.53;;
56997;SDS011;42890;44.244;22.530;2023-04-01T14:47:42;9.32;;;8.43;;
56997;SDS011;42890;44.244;22.530;2023-04-01T14:50:18;12.68;;;9.05;;
56997;SDS011;42890;44.244;22.530;2023-04-01T14:52:57;11.48;;;8.57;;
56997;SDS011;42890;44.244;22.530;2023-04-01T14:55:28;10.02;;;9.13;;
56997;SDS011;42890;44.244;22.530;2023-04-01T14:58:14;16.23;;;11.57;;
56997;SDS011;42890;44.244;22.530;2023-04-01T15:08:18;126.32;;;66.22;;
56997;SDS011;42890;44.244;22.530;2023-04-01T15:21:16;79.78;;;64.53;;
56997;SDS011;42890;44.244;22.530;2023-04-01T15:28:46;43.92;;;39.42;;
56997;SDS011;42890;44.244;22.530;2023-04-01T15:33:44;95.18;;;74.70;;
56997;SDS011;42890;44.244;22.530;2023-04-01T15:36:20;40.13;;;35.78;;
56997;SDS011;42890;44.244;22.530;2023-04-01T15:41:24;67.82;;;59.88;;
56997;SDS011;42890;44.244;22.530;2023-04-01T15:43:53;77.07;;;66.70;;
56997;SDS011;42890;44.244;22.530;2023-04-01T15:49:31;79.55;;;66.78;;
56997;SDS011;42890;44.244;22.530;2023-04-01T15:57:15;99.72;;;74.20;;
56997;SDS011;42890;44.244;22.530;2023-04-01T16:05:06;68.72;;;31.75;;
56997;SDS011;42890;44.244;22.530;2023-04-01T16:07:41;24.50;;;18.27;;
56997;SDS011;42890;44.244;22.530;2023-04-01T16:20:20;47.90;;;30.00;;
56997;SDS011;42890;44.244;22.530;2023-04-01T16:23:00;63.42;;;36.75;;
56997;SDS011;42890;44.244;22.530;2023-04-01T16:25:32;41.50;;;22.58;;
56997;SDS011;42890;44.244;22.530;2023-04-01T16:28:13;36.00;;;24.33;;
56997;SDS011;42890;44.244;22.530;2023-04-01T16:38:26;42.45;;;32.25;;
56997;SDS011;42890;44.244;22.530;2023-04-01T16:41:05;109.43;;;48.55;;
56997;SDS011;42890;44.244;22.530;2023-04-01T16:43:43;62.45;;;32.95;;
56997;SDS011;42890;44.244;22.530;2023-04-01T16:47:14;33.45;;;23.05;;
56997;SDS011;42890;44.244;22.530;2023-04-01T16:54:10;10.52;;;9.25;;
56997;SDS011;42890;44.244;22.530;2023-04-01T16:56:39;11.73;;;8.50;;
56997;SDS011;42890;44.244;22.530;2023-04-01T16:59:07;16.40;;;13.75;;
56997;SDS011;42890;44.244;22.530;2023-04-01T17:01:44;42.72;;;25.85;;
56997;SDS011;42890;44.244;22.530;2023-04-01T17:04:19;81.97;;;31.52;;
56997;SDS011;42890;44.244;22.530;2023-04-01T17:06:54;10.48;;;6.68;;
56997;SDS011;42890;44.244;22.530;2023-04-01T17:09:57;27.40;;;21.05;;
56997;SDS011;42890;44.244;22.530;2023-04-01T17:14:59;9.27;;;7.65;;
56997;SDS011;42890;44.244;22.530;2023-04-01T17:35:48;12.40;;;10.45;;
56997;SDS011;42890;44.244;22.530;2023-04-01T17:51:17;21.35;;;17.95;;
56997;SDS011;42890;44.244;22.530;2023-04-01T17:56:14;26.38;;;16.85;;
56997;SDS011;42890;44.244;22.530;2023-04-01T17:58:46;24.25;;;18.13;;
56997;SDS011;42890;44.244;22.530;2023-04-01T18:06:41;13.57;;;12.00;;
56997;SDS011;42890;44.244;22.530;2023-04-01T18:11:54;11.32;;;6.28;;
56997;SDS011;42890;44.244;22.530;2023-04-01T18:20:07;15.25;;;10.75;;
56997;SDS011;42890;44.244;22.530;2023-04-01T18:22:29;11.27;;;8.80;;
56997;SDS011;42890;44.244;22.530;2023-04-01T18:25:04;25.92;;;16.98;;
56997;SDS011;42890;44.244;22.530;2023-04-01T18:27:39;40.95;;;27.73;;
56997;SDS011;42890;44.244;22.530;2023-04-01T18:32:36;34.28;;;19.60;;
56997;SDS011;42890;44.244;22.530;2023-04-01T18:35:49;29.45;;;14.70;;
56997;SDS011;42890;44.244;22.530;2023-04-01T18:37:58;26.95;;;16.50;;
56997;SDS011;42890;44.244;22.530;2023-04-01T18:40:35;13.98;;;8.55;;
56997;SDS011;42890;44.244;22.530;2023-04-01T18:45:33;48.65;;;42.10;;
56997;SDS011;42890;44.244;22.530;2023-04-01T18:48:06;71.43;;;54.50;;
56997;SDS011;42890;44.244;22.530;2023-04-01T18:50:41;65.05;;;59.53;;
56997;SDS011;42890;44.244;22.530;2023-04-01T18:53:28;12.15;;;11.02;;
56997;SDS011;42890;44.244;22.530;2023-04-01T18:55:55;14.23;;;9.77;;
56997;SDS011;42890;44.244;22.530;2023-04-01T19:00:53;20.15;;;14.75;;
56997;SDS011;42890;44.244;22.530;2023-04-01T19:03:34;17.02;;;13.48;;
56997;SDS011;42890;44.244;22.530;2023-04-01T19:06:08;31.15;;;20.77;;
56997;SDS011;42890;44.244;22.530;2023-04-01T19:08:40;18.75;;;11.90;;
56997;SDS011;42890;44.244;22.530;2023-04-01T19:11:08;18.02;;;12.15;;
56997;SDS011;42890;44.244;22.530;2023-04-01T19:18:54;26.60;;;19.70;;
56997;SDS011;42890;44.244;22.530;2023-04-01T19:21:36;18.88;;;13.52;;
56997;SDS011;42890;44.244;22.530;2023-04-01T19:34:32;24.73;;;13.23;;
56997;SDS011;42890;44.244;22.530;2023-04-01T19:52:31;28.08;;;19.00;;
56997;SDS011;42890;44.244;22.530;2023-04-01T19:57:58;43.45;;;21.33;;
56997;SDS011;42890;44.244;22.530;2023-04-01T20:00:40;28.45;;;17.45;;
56997;SDS011;42890;44.244;22.530;2023-04-01T20:05:45;22.85;;;13.68;;
56997;SDS011;42890;44.244;22.530;2023-04-01T20:16:11;40.13;;;27.98;;
56997;SDS011;42890;44.244;22.530;2023-04-01T20:23:52;37.78;;;29.00;;
56997;SDS011;42890;44.244;22.530;2023-04-01T20:26:36;184.75;;;90.00;;
56997;SDS011;42890;44.244;22.530;2023-04-01T20:29:09;290.63;;;136.45;;
56997;SDS011;42890;44.244;22.530;2023-04-01T20:31:40;17.52;;;12.68;;
56997;SDS011;42890;44.244;22.530;2023-04-01T20:47:04;125.28;;;56.90;;
56997;SDS011;42890;44.244;22.530;2023-04-01T20:52:25;24.13;;;14.80;;
56997;SDS011;42890;44.244;22.530;2023-04-01T21:02:25;107.47;;;52.88;;
56997;SDS011;42890;44.244;22.530;2023-04-01T21:07:40;85.65;;;40.13;;
56997;SDS011;42890;44.244;22.530;2023-04-01T21:10:13;143.90;;;62.80;;
56997;SDS011;42890;44.244;22.530;2023-04-01T21:15:41;145.90;;;54.53;;
56997;SDS011;42890;44.244;22.530;2023-04-01T21:21:22;126.68;;;49.75;;
56997;SDS011;42890;44.244;22.530;2023-04-01T21:58:19;38.47;;;21.45;;
56997;SDS011;42890;44.244;22.530;2023-04-01T22:05:54;164.90;;;51.25;;
56997;SDS011;42890;44.244;22.530;2023-04-01T22:13:27;177.05;;;66.88;;
56997;SDS011;42890;44.244;22.530;2023-04-01T22:18:31;298.88;;;111.30;;
56997;SDS011;42890;44.244;22.530;2023-04-01T22:21:00;421.65;;;148.23;;
56997;SDS011;42890;44.244;22.530;2023-04-01T22:23:53;221.75;;;84.55;;
56997;SDS011;42890;44.244;22.530;2023-04-01T22:26:18;301.35;;;81.35;;
56997;SDS011;42890;44.244;22.530;2023-04-01T22:28:48;227.93;;;68.10;;
56997;SDS011;42890;44.244;22.530;2023-04-01T22:31:19;177.10;;;67.23;;
56997;SDS011;42890;44.244;22.530;2023-04-01T22:43:55;38.33;;;22.80;;
56997;SDS011;42890;44.244;22.530;2023-04-01T22:48:57;68.90;;;33.88;;
56997;SDS011;42890;44.244;22.530;2023-04-01T22:51:42;43.78;;;23.80;;
56997;SDS011;42890;44.244;22.530;2023-04-01T22:56:40;72.03;;;39.03;;
56997;SDS011;42890;44.244;22.530;2023-04-01T22:59:11;90.95;;;45.65;;
56997;SDS011;42890;44.244;22.530;2023-04-01T23:01:48;126.20;;;58.28;;
56997;SDS011;42890;44.244;22.530;2023-04-01T23:04:16;79.90;;;42.00;;
56997;SDS011;42890;44.244;22.530;2023-04-01T23:06:46;32.05;;;19.77;;
56997;SDS011;42890;44.244;22.530;2023-04-01T23:09:21;148.85;;;61.33;;
56997;SDS011;42890;44.244;22.530;2023-04-01T23:19:33;84.60;;;35.63;;
56997;SDS011;42890;44.244;22.530;2023-04-01T23:24:41;289.42;;;104.47;;
56997;SDS011;42890;44.244;22.530;2023-04-01T23:29:36;56.25;;;31.40;;
56997;SDS011;42890;44.244;22.530;2023-04-01T23:32:17;188.45;;;67.38;;
56997;SDS011;42890;44.244;22.530;2023-04-01T23:35:02;60.78;;;33.67;;
56997;SDS011;42890;44.244;22.530;2023-04-01T23:37:28;76.05;;;35.33;;
56997;SDS011;42890;44.244;22.530;2023-04-01T23:39:55;20.75;;;12.80;;
56997;SDS011;42890;44.244;22.530;2023-04-01T23:42:26;37.63;;;20.35;;
56997;SDS011;42890;44.244;22.530;2023-04-01T23:44:55;41.75;;;18.05;;
56997;SDS011;42890;44.244;22.530;2023-04-01T23:47:23;97.30;;;33.70;;
56997;SDS011;42890;44.244;22.530;2023-04-01T23:49:56;17.45;;;9.63;;
56997;SDS011;42890;44.244;22.530;2023-04-01T23:52:25;54.92;;;26.98;;
56997;SDS011;42890;44.244;22.530;2023-04-01T23:54:53;41.38;;;23.15;;
56997;SDS011;42890;44.244;22.530;2023-04-01T23:57:27;41.15;;;23.75;;
